地図

経路データ

SID SEASON NUMBER BASIN SUBBASIN NAME ISO_TIME NATURE LAT LON WMO_WIND WMO_PRES WMO_AGENCY TRACK_TYPE DIST2LAND LANDFALL IFLAG USA_AGENCY USA_ATCF_ID USA_LAT USA_LON USA_RECORD USA_STATUS USA_WIND USA_PRES USA_SSHS USA_R34_NE USA_R34_SE USA_R34_SW USA_R34_NW USA_R50_NE USA_R50_SE USA_R50_SW USA_R50_NW USA_R64_NE USA_R64_SE USA_R64_SW USA_R64_NW USA_POCI USA_ROCI USA_RMW USA_EYE TOKYO_LAT TOKYO_LON TOKYO_GRADE TOKYO_WIND TOKYO_PRES TOKYO_R50_DIR TOKYO_R50_LONG TOKYO_R50_SHORT TOKYO_R30_DIR TOKYO_R30_LONG TOKYO_R30_SHORT TOKYO_LAND CMA_LAT CMA_LON CMA_CAT CMA_WIND CMA_PRES HKO_LAT HKO_LON HKO_CAT HKO_WIND HKO_PRES NEWDELHI_LAT NEWDELHI_LON NEWDELHI_GRADE NEWDELHI_WIND NEWDELHI_PRES NEWDELHI_CI NEWDELHI_DP NEWDELHI_POCI REUNION_LAT REUNION_LON REUNION_TYPE REUNION_WIND REUNION_PRES REUNION_TNUM REUNION_CI REUNION_RMW REUNION_R34_NE REUNION_R34_SE REUNION_R34_SW REUNION_R34_NW REUNION_R50_NE REUNION_R50_SE REUNION_R50_SW REUNION_R50_NW REUNION_R64_NE REUNION_R64_SE REUNION_R64_SW REUNION_R64_NW BOM_LAT BOM_LON BOM_TYPE BOM_WIND BOM_PRES BOM_TNUM BOM_CI BOM_RMW BOM_R34_NE BOM_R34_SE BOM_R34_SW BOM_R34_NW BOM_R50_NE BOM_R50_SE BOM_R50_SW BOM_R50_NW BOM_R64_NE BOM_R64_SE BOM_R64_SW BOM_R64_NW BOM_ROCI BOM_POCI BOM_EYE BOM_POS_METHOD BOM_PRES_METHOD NADI_LAT NADI_LON NADI_CAT NADI_WIND NADI_PRES WELLINGTON_LAT WELLINGTON_LON WELLINGTON_WIND WELLINGTON_PRES DS824_LAT DS824_LON DS824_STAGE DS824_WIND DS824_PRES TD9636_LAT TD9636_LON TD9636_STAGE TD9636_WIND TD9636_PRES TD9635_LAT TD9635_LON TD9635_WIND TD9635_PRES TD9635_ROCI NEUMANN_LAT NEUMANN_LON NEUMANN_CLASS NEUMANN_WIND NEUMANN_PRES MLC_LAT MLC_LON MLC_CLASS MLC_WIND MLC_PRES USA_GUST BOM_GUST BOM_GUST_PER REUNION_GUST REUNION_GUST_PER USA_SEAHGT USA_SEARAD_NE USA_SEARAD_SE USA_SEARAD_SW USA_SEARAD_NW STORM_SPEED STORM_DIR
1957061S11134 1957 18 SI WA NOT_NAMED 1957-03-01 23:00:00 NR -11.0000 134.000 1004 bom main 92 92 ______O_______ -1 -11.0000 134.000 1004 2 0
1957061S11134 1957 18 SI WA NOT_NAMED 1957-03-02 00:00:00 TS -11.0127 133.977 main 92 79 ______P__O____ -1 -11.0190 133.966 -11.0000 134.000 TC 20 1004 2 239
1957061S11134 1957 18 SI WA NOT_NAMED 1957-03-02 03:00:00 TS -11.0686 133.884 main 79 78 ______P__P____ -1 -11.0762 133.866 -11.0571 133.910 TC 2 238
1957061S11134 1957 18 SI WA NOT_NAMED 1957-03-02 06:00:00 TS -11.1258 133.793 main 78 67 ______P__P____ -1 -11.1341 133.771 -11.1146 133.822 TC 2 235
1957061S11134 1957 18 SI WA NOT_NAMED 1957-03-02 09:00:00 TS -11.1832 133.712 main 67 67 ______P__P____ -1 -11.1932 133.685 -11.1732 133.740 TC 2 233
1957061S11134 1957 18 SI WA NOT_NAMED 1957-03-02 12:00:00 TS -11.2436 133.638 main 68 57 ______P__P____ -1 -11.2539 133.610 -11.2334 133.666 TC 2 227
1957061S11134 1957 18 SI WA NOT_NAMED 1957-03-02 15:00:00 TS -11.3063 133.577 main 57 44 ______P__P____ -1 -11.3170 133.551 -11.2956 133.602 TC 2 218
1957061S11134 1957 18 SI WA NOT_NAMED 1957-03-02 18:00:00 TS -11.3716 133.532 main 44 44 ______P__P____ -1 -11.3827 133.512 -11.3604 133.551 TC 2 205
1957061S11134 1957 18 SI WA NOT_NAMED 1957-03-02 21:00:00 TS -11.4401 133.506 main 44 33 ______P__P____ -1 -11.4518 133.496 -11.4284 133.516 TC 1 202
1957061S11134 1957 18 SI WA NOT_NAMED 1957-03-02 23:00:00 TS -11.4878 133.502 1004 bom main 33 33 ______O__P____ -1 -11.5000 133.500 1004 -11.4757 133.503 TC 1 0
1957061S11134 1957 18 SI WA NOT_NAMED 1957-03-03 00:00:00 TS -11.5124 133.503 main 33 22 ______P__O____ -1 -11.5248 133.507 -11.5000 133.500 TC 20 1004 2 0
1957061S11134 1957 18 SI WA NOT_NAMED 1957-03-03 03:00:00 TS -11.5887 133.521 main 22 11 ______P__P____ -1 -11.6017 133.540 -11.5757 133.502 TC 2 164
1957061S11134 1957 18 SI WA NOT_NAMED 1957-03-03 06:00:00 TS -11.6689 133.547 main 11 11 ______P__P____ -1 -11.6825 133.582 -11.6553 133.512 TC 2 168
1957061S11134 1957 18 SI WA NOT_NAMED 1957-03-03 09:00:00 TS -11.7527 133.566 main 10 10 ______P__P____ -1 -11.7668 133.616 -11.7386 133.517 TC 2 172
1957061S11134 1957 18 SI WA NOT_NAMED 1957-03-03 12:00:00 TS -11.8398 133.564 main 10 0 ______P__P____ -1 -11.8545 133.625 -11.8252 133.503 TC 2 192
1957061S11134 1957 18 SI WA NOT_NAMED 1957-03-03 15:00:00 TS -11.9301 133.527 main 0 0 ______P__P____ -1 -11.9452 133.596 -11.9150 133.458 TC 2 203
1957061S11134 1957 18 SI WA NOT_NAMED 1957-03-03 16:00:00 TS -11.9608 133.504 main 0 0 ______P__P____ -1 -11.9761 133.574 -11.9455 133.434 TC 3 225
1957061S11134 1957 18 SI WA NOT_NAMED 1957-03-03 18:00:00 TS -12.0231 133.439 main 0 0 ______P__P____ -1 -12.0387 133.510 -12.0076 133.368 TC 3 233
1957061S11134 1957 18 SI WA NOT_NAMED 1957-03-03 21:00:00 TS -12.1187 133.286 main 0 0 ______P__P____ -1 -12.1348 133.353 -12.1027 133.220 TC 4 241
1957061S11134 1957 18 SI WA NOT_NAMED 1957-03-03 23:00:00 TS -12.1837 133.141 1005 bom main 0 0 ______O__P____ -1 -12.2000 133.200 1005 -12.1673 133.082 TC 6 249
1957061S11134 1957 18 SI WA NOT_NAMED 1957-03-04 00:00:00 TS -12.2204 133.016 main 0 0 ______P__O____ -1 -12.2408 133.032 -12.2000 133.000 TC 20 1005 10 255
1957061S11134 1957 18 SI WA NOT_NAMED 1957-03-04 03:00:00 TS -12.3526 132.474 main 0 0 ______P__P____ -1 -12.3683 132.437 -12.3370 132.511 TC 11 256
1957061S11134 1957 18 SI WA NOT_NAMED 1957-03-04 04:00:00 TS -12.3981 132.271 main 0 0 ______P__P____ -1 -12.4117 132.216 -12.3845 132.326 TC 13 258
1957061S11134 1957 18 SI WA NOT_NAMED 1957-03-04 06:00:00 TS -12.4893 131.842 main 0 0 ______P__P____ -1 -12.4983 131.753 -12.4804 131.931 TC 13 258
1957061S11134 1957 18 SI WA NOT_NAMED 1957-03-04 09:00:00 TS -12.6228 131.171 main 0 0 ______P__P____ -1 -12.6242 131.037 -12.6213 131.304 TC 13 259
1957061S11134 1957 18 SI WA NOT_NAMED 1957-03-04 12:00:00 TS -12.7457 130.513 main 0 0 ______P__P____ -1 -12.7403 130.349 -12.7511 130.678 TC 16 269
1957061S11134 1957 18 SI WA NOT_NAMED 1957-03-04 15:00:00 TS -12.6439 129.563 main 70 70 ______P__P____ -1 -12.8412 129.746 -12.8615 130.098 TC 20 281
1957061S11134 1957 18 SI WA NOT_NAMED 1957-03-04 16:00:00 TS -12.4964 129.160 main 112 112 ______P__PO___ -1 -12.8706 129.574 -12.8926 129.923 TC -11.9000 128.200 1 20 13 285
1957061S11134 1957 18 SI WA NOT_NAMED 1957-03-04 18:00:00 TS -12.4714 128.918 main 141 141 O_____P__PP___ jtwc_sh SH241957 -12.0000 128.400 20 -1 -12.9220 129.287 -12.9447 129.611 TC -12.0179 128.367 1 20 4 263
1957061S11134 1957 18 SI WA NOT_NAMED 1957-03-04 21:00:00 TS -12.5350 128.856 main 141 137 P_____P__PP___ SH241957 -12.2101 128.667 17 -1 -12.9784 129.030 -12.9934 129.263 TC -12.1942 128.611 1 20 2 190
1957061S11134 1957 18 SI WA NOT_NAMED 1957-03-04 23:00:00 TS -12.6008 128.910 1002 bom main 137 137 P_____O__PP___ SH241957 -12.3401 128.829 15 -1 -13.0000 129.000 1002 -13.0029 129.131 TC -12.3111 128.766 1 20 3 142
1957061S11134 1957 18 SI WA NOT_NAMED 1957-03-05 00:00:00 TS -12.6384 128.936 main 137 113 O_____P__OP___ jtwc_sh SH241957 -12.4000 128.900 15 -1 -13.0218 129.102 1001 -13.0000 129.100 TC 25 1002 -12.3693 128.839 1 20 4 126
1957061S11134 1957 18 SI WA NOT_NAMED 1957-03-05 03:00:00 TS -12.7396 129.104 main 113 109 P_____P__PP___ SH241957 -12.5575 129.073 15 -1 -13.0477 129.432 1000 -12.9671 129.227 TC 27 1001 -12.5427 129.041 1 20 3 125
1957061S11134 1957 18 SI WA NOT_NAMED 1957-03-05 04:00:00 TS -12.7695 129.127 main 109 109 P_____P__PO___ SH241957 -12.6054 129.119 15 -1 -13.0325 129.493 1000 -12.9482 129.270 TC 28 1000 -12.6000 129.100 1 20 2 150
1957061S11134 1957 18 SI WA NOT_NAMED 1957-03-05 05:00:00 TS -12.7987 129.139 1000 bom main 109 109 P_____O__PP___ SH241957 -12.6526 129.161 15 -1 -13.0000 129.500 1000 -12.9257 129.298 TC 29 1000 -12.6570 129.155 1 19 1 0
1957061S11134 1957 18 SI WA NOT_NAMED 1957-03-05 06:00:00 TS -12.8139 129.145 main 109 109 O_____P__OP___ jtwc_sh SH241957 -12.7000 129.200 15 -1 -12.9061 129.353 1000 -12.9000 129.300 TC 30 1000 -12.7135 129.206 1 19 1 242
1957061S11134 1957 18 SI WA NOT_NAMED 1957-03-05 09:00:00 TS -12.8360 129.069 main 109 101 P_____P__PP___ SH241957 -12.8500 129.300 17 -1 -12.5755 128.717 1000 -12.7250 128.983 TC 30 1000 -12.8777 129.340 1 17 1 231
1957061S11134 1957 18 SI WA NOT_NAMED 1957-03-05 11:00:00 TS -12.8836 129.058 1000 bom main 101 101 P_____O__PP___ SH241957 -12.9500 129.364 19 -1 -12.5000 128.500 1000 -12.6731 128.811 TC 30 1000 -12.9804 129.418 1 17 2 155
1957061S11134 1957 18 SI WA NOT_NAMED 1957-03-05 12:00:00 TS -12.9376 129.111 main 101 54 O_____P__OP___ jtwc_sh SH241957 -13.0000 129.400 20 -1 -12.5946 128.659 1000 -12.7000 128.800 TC 30 1000 -13.0290 129.455 1 16 7 130
1957061S11134 1957 18 SI WA NOT_NAMED 1957-03-05 15:00:00 TS -13.1960 129.445 main 54 39 P_____P__PP___ SH241957 -13.1650 129.550 20 -1 -13.1258 129.521 1000 -13.1057 129.349 TC 30 1000 -13.1613 129.563 1 15 8 129
1957061S11134 1957 18 SI WA NOT_NAMED 1957-03-05 16:00:00 TS -13.2893 129.563 main 31 24 P_____P__PO___ SH241957 -13.2158 129.602 20 -1 -13.3231 129.798 1000 -13.2803 129.572 TC 30 1000 -13.2000 129.600 1 15 8 130
1957061S11134 1957 18 SI WA NOT_NAMED 1957-03-05 17:00:00 TS -13.3760 129.664 1000 bom main 15 15 P_____O__PP___ SH241957 -13.2614 129.653 20 -1 -13.5000 130.000 1000 -13.4500 129.765 TC 30 1000 -13.2375 129.642 1 15 7 135
1957061S11134 1957 18 SI WA NOT_NAMED 1957-03-05 18:00:00 TS -13.4477 129.725 main 15 0 O_____P__OP___ jtwc_sh SH241957 -13.3000 129.700 20 -1 -13.6248 130.031 999 -13.6000 129.900 TC 30 1000 -13.2724 129.683 1 15 4 160
1957061S11134 1957 18 SI WA NOT_NAMED 1957-03-05 21:00:00 TS -13.5929 129.750 main 10 10 P_____P__PP___ SH241957 -13.3650 129.800 20 -1 -13.8999 129.776 996 -13.8600 129.755 TC 35 997 -13.3621 129.808 1 17 2 0
1957061S11134 1957 18 SI WA NOT_NAMED 1957-03-05 23:00:00 TS -13.6538 129.725 995 bom main 10 10 P_____O__PP___ SH241957 -13.3886 129.864 20 -1 -14.0000 129.500 995 -13.9636 129.514 TC 38 995 -13.4108 129.892 1 17 2 203
1957061S11134 1957 18 SI WA NOT_NAMED 1957-03-06 00:00:00 TS -13.6746 129.721 main 10 10 O_____P__OP___ jtwc_sh SH241957 -13.4000 129.900 20 -1 -14.0155 129.390 994 -14.0000 129.400 TC 40 995 -13.4321 129.933 1 18 1 0
1957061S11134 1957 18 SI WA NOT_NAMED 1957-03-06 03:00:00 TS -13.7156 129.746 main 10 0 P_____P__PP___ SH241957 -13.4500 130.050 20 -1 -13.9877 129.088 993 -14.0499 129.168 TC 40 994 -13.4854 130.058 1 19 1 141
1957061S11134 1957 18 SI WA NOT_NAMED 1957-03-06 04:00:00 TS -13.7278 129.768 main 0 0 P_____P__PO___ SH241957 -13.4667 130.102 20 -1 -13.9846 129.026 993 -14.0592 129.118 TC 40 993 -13.5000 130.100 1 20 2 119
1957061S11134 1957 18 SI WA NOT_NAMED 1957-03-06 05:00:00 TS -13.7426 129.799 993 bom main 0 0 P_____O__PP___ SH241957 -13.4833 130.153 20 -1 -14.0000 129.000 993 -14.0740 129.093 TC 40 993 -13.5076 130.141 1 20 2 120
1957061S11134 1957 18 SI WA NOT_NAMED 1957-03-06 06:00:00 TS -13.7673 129.839 main 0 0 O_____P__OP___ jtwc_sh SH241957 -13.5000 130.200 20 -1 -14.0678 129.005 993 -14.1000 129.100 TC 40 993 -13.5123 130.181 1 20 4 123
1957061S11134 1957 18 SI WA NOT_NAMED 1957-03-06 09:00:00 TS -13.8753 130.007 main 0 0 P_____P__PP___ SH241957 -13.5575 130.300 20 -1 -14.3454 129.216 994 -14.3073 129.287 TC 40 994 -13.5179 130.302 1 20 4 119
1957061S11134 1957 18 SI WA NOT_NAMED 1957-03-06 11:00:00 TS -13.9405 130.165 995 bom main 0 0 P_____O__PP___ SH241957 -13.5890 130.364 20 -1 -14.5000 129.500 995 -14.4482 129.542 TC 40 994 -13.5237 130.384 1 20 5 109
1957061S11134 1957 18 SI WA NOT_NAMED 1957-03-06 12:00:00 TS -13.9600 130.260 main 0 0 O_____P__OP___ jtwc_sh SH241957 -13.6000 130.400 20 -1 -14.5236 129.697 995 -14.5000 129.700 TC 40 995 -13.5301 130.426 1 20 6 94
1957061S11134 1957 18 SI WA NOT_NAMED 1957-03-06 15:00:00 TS -13.9694 130.601 main 0 0 P_____P__PP___ SH241957 -13.5850 130.550 20 -1 -14.5119 130.402 995 -14.5080 130.323 TC 37 995 -13.5740 130.555 1 20 7 92
1957061S11134 1957 18 SI WA NOT_NAMED 1957-03-06 16:00:00 TS -13.9723 130.714 main 0 0 P_____P__PO___ SH241957 -13.5817 130.603 20 -1 -14.5020 130.620 995 -14.4985 130.539 TC 36 995 -13.6000 130.600 1 20 6 93
1957061S11134 1957 18 SI WA NOT_NAMED 1957-03-06 17:00:00 TS -13.9804 130.816 996 bom main 0 0 P_____O__PP___ SH241957 -13.5855 130.653 20 -1 -14.5000 130.800 996 -14.4936 130.736 TC 35 995 -13.6283 130.642 1 20 5 98
1957061S11134 1957 18 SI WA NOT_NAMED 1957-03-06 18:00:00 TS -13.9986 130.899 main 0 0 O_____P__OP___ jtwc_sh SH241957 -13.6000 130.700 20 -1 -14.5191 130.904 996 -14.5000 130.900 TC 35 996 -13.6614 130.684 1 20 4 118
1957061S11134 1957 18 SI WA NOT_NAMED 1957-03-06 21:00:00 TS -14.1031 131.050 main 0 0 P_____P__PP___ SH241957 -13.7049 130.785 20 -1 -14.6143 131.046 997 -14.6122 131.103 TC 35 997 -13.7908 130.816 1 20 4 133
1957061S11134 1957 18 SI WA NOT_NAMED 1957-03-06 23:00:00 TS -14.2076 131.134 998 bom main 0 0 P_____O__PP___ SH241957 -13.8250 130.852 20 -1 -14.7000 131.100 998 -14.7306 131.162 TC 35 997 -13.9048 130.912 1 20 4 140
1957061S11134 1957 18 SI WA NOT_NAMED 1957-03-07 00:00:00 TS -14.2639 131.185 main 0 0 O_____P__OP___ jtwc_sh SH241957 -13.9000 130.900 20 -1 -14.7127 131.145 997 -14.8000 131.200 TC 35 998 -13.9707 130.963 1 20 5 135
1957061S11134 1957 18 SI WA NOT_NAMED 1957-03-07 03:00:00 TS -14.4523 131.388 main 0 0 P_____P__PP___ SH241957 -14.1625 131.127 20 -1 -14.7996 131.314 997 -14.9749 131.413 TC 35 997 -14.2074 131.136 1 20 6 135
1957061S11134 1957 18 SI WA NOT_NAMED 1957-03-07 04:00:00 TS -14.5371 131.468 main 0 0 P_____P__PO___ SH241957 -14.2679 131.217 20 -1 -14.8787 131.397 997 -15.0592 131.499 TC 35 997 -14.3000 131.200 1 20 7 139
1957061S11134 1957 18 SI WA NOT_NAMED 1957-03-07 05:00:00 TS -14.6369 131.554 997 bom main 0 0 P_____O__PP___ SH241957 -14.3807 131.309 20 -1 -15.0000 131.500 997 -15.1657 131.595 TC 35 997 -14.3994 131.270 1 20 9 141
1957061S11134 1957 18 SI WA NOT_NAMED 1957-03-07 06:00:00 TS -14.7602 131.651 main 0 0 O_____P__OP___ jtwc_sh SH241957 -14.5000 131.400 20 -1 -15.2079 131.658 997 -15.3000 131.700 TC 35 997 -14.5070 131.344 1 20 11 146
1957061S11134 1957 18 SI WA NOT_NAMED 1957-03-07 09:00:00 TS -15.2246 131.968 main 0 0 P_____P__PP___ SH241957 -14.8925 131.650 20 -1 -16.0143 132.212 997 -15.9428 132.144 TC 35 997 -14.8680 131.585 1 20 11 148
1957061S11134 1957 18 SI WA NOT_NAMED 1957-03-07 11:00:00 TS -15.5450 132.160 998 bom main 0 0 P_____O__PP___ SH241957 -15.1671 131.817 20 -1 -16.5000 132.500 998 -16.4024 132.410 TC 35 997 -15.1301 131.757 1 20 11 150
1957061S11134 1957 18 SI WA NOT_NAMED 1957-03-07 12:00:00 TS -15.6819 132.236 main 0 0 O_____P__OP___ jtwc_sh SH241957 -15.3000 131.900 20 -1 -16.6271 132.571 998 -16.6000 132.500 TC 35 998 -15.2645 131.845 1 20 8 155
1957061S11134 1957 18 SI WA NOT_NAMED 1957-03-07 15:00:00 TS -16.0293 132.391 main 0 0 P_____P__PP___ SH241957 -15.6500 132.150 20 -1 -16.8479 132.594 998 -16.9898 132.548 TC 35 998 -15.6685 132.112 1 20 7 157
1957061S11134 1957 18 SI WA NOT_NAMED 1957-03-07 16:00:00 TS -16.0965 132.421 main 0 0 P_____P__PO___ SH241957 -15.7642 132.233 20 -1 -16.9142 132.555 998 -17.0710 132.511 TC 35 998 -15.8000 132.200 1 20 4 158
1957061S11134 1957 18 SI WA NOT_NAMED 1957-03-07 17:00:00 TS -16.1661 132.452 998 bom main 0 0 P_____O__PP___ SH241957 -15.8802 132.317 20 -1 -17.0000 132.500 998 -17.1388 132.459 TC 35 998 -15.9286 132.283 1 20 5 156
1957061S11134 1957 18 SI WA NOT_NAMED 1957-03-07 18:00:00 TS -16.2501 132.487 main 0 0 O_____P__OP___ jtwc_sh SH241957 -16.0000 132.400 20 -1 -17.1507 132.431 998 -17.2000 132.400 TC 35 998 -16.0573 132.367 1 20 7 163
1957061S11134 1957 18 SI WA NOT_NAMED 1957-03-07 21:00:00 TS -16.6386 132.598 main 0 0 P_____P___P___ SH241957 -16.4075 132.650 17 -1 -17.6773 132.151 999 TC -16.4375 132.617 1 20 8 165
1957061S11134 1957 18 SI WA NOT_NAMED 1957-03-07 23:00:00 TS -16.9179 132.678 1000 bom main 0 0 P_____O___P___ SH241957 -16.6754 132.817 15 -1 -18.0000 132.000 1000 TC -16.6789 132.783 1 20 8 163
1957061S11134 1957 18 SI WA NOT_NAMED 1957-03-08 00:00:00 TS -17.0383 132.731 main 0 0 O_____P___P___ jtwc_sh SH241957 -16.8000 132.900 15 -1 -18.0973 131.989 -16.7939 132.867 1 20 7 151
1957061S11134 1957 18 SI WA NOT_NAMED 1957-03-08 03:00:00 TS -17.3405 132.925 main 0 0 P_____P___P___ SH241957 -17.1375 133.150 12 -1 -18.2501 132.106 -17.1080 133.117 1 20 7 146
1957061S11134 1957 18 SI WA NOT_NAMED 1957-03-08 04:00:00 TS -17.4237 132.998 main 0 0 P_____P___O___ SH241957 -17.2345 133.233 11 -1 -18.2640 132.187 -17.2000 133.200 1 20 6 135
1957061S11134 1957 18 SI WA NOT_NAMED 1957-03-08 06:00:00 TS -17.5641 133.156 main 0 0 O_____P___P___ jtwc_sh SH241957 -17.4000 133.400 10 -1 -18.2528 132.397 -17.3618 133.364 1 18 6 127
1957061S11134 1957 18 SI WA NOT_NAMED 1957-03-08 09:00:00 TS -17.7188 133.412 main 0 0 P_____P___P___ SH241957 -17.5725 133.650 10 -1 -18.1807 132.792 -17.5605 133.611 1 15 6 119
1957061S11134 1957 18 SI WA NOT_NAMED 1957-03-08 12:00:00 TS -17.8403 133.681 main 0 0 O_____P___P___ jtwc_sh SH241957 -17.7000 133.900 10 -1 -18.1095 133.224 -17.7203 133.859 1 13 6 116
1957061S11134 1957 18 SI WA NOT_NAMED 1957-03-08 14:00:00 TS -17.9277 133.861 1002 bom main 0 0 P_____O___P___ SH241957 -17.8000 134.067 10 -1 -18.1000 133.500 1002 -17.8130 134.028 1 11 6 119
1957061S11134 1957 18 SI WA NOT_NAMED 1957-03-08 15:00:00 TS -17.9796 133.945 main 0 0 P_____P___P___ SH241957 -17.8500 134.150 10 -1 -18.1457 133.600 1002 -17.8569 134.113 1 10 6 123
1957061S11134 1957 18 SI WA NOT_NAMED 1957-03-08 16:00:00 TS -18.0315 134.030 main 0 0 P_____P___O___ SH241957 -17.9000 134.233 10 -1 -18.1970 133.699 1002 -17.9000 134.200 1 10 6 123
1957061S11134 1957 18 SI WA NOT_NAMED 1957-03-08 18:00:00 TS -18.1415 134.201 main 0 0 O_____P___P___ jtwc_sh SH241957 -18.0000 134.400 10 -1 -18.3101 133.902 1002 -18.0208 134.367 1 10 6 123
1957061S11134 1957 18 SI WA NOT_NAMED 1957-03-08 21:00:00 TS -18.3028 134.465 main 0 0 P_____P___P___ SH241957 -18.1649 134.642 10 -1 -18.4820 134.218 1003 -18.1901 134.623 1 10 6 120
1957061S11134 1957 18 SI WA NOT_NAMED 1957-03-08 23:30:00 TS -18.4113 134.701 1004 bom main 0 0 P_____O___P___ SH241957 -18.2817 134.855 10 -1 -18.6000 134.500 1004 -18.3043 134.849 1 10 6 115
1957061S11134 1957 18 SI WA NOT_NAMED 1957-03-09 00:00:00 TS -18.4271 134.751 main 0 0 O_____P___P___ jtwc_sh SH241957 -18.3000 134.900 10 -1 -18.6128 134.561 -18.3228 134.896 1 10 6 104
1957061S11134 1957 18 SP EA NOT_NAMED 1957-03-09 03:00:00 TS -18.4947 135.068 main 0 0 P_____P___P___ SH241957 -18.3949 135.177 10 -1 -18.6511 134.948 -18.3942 135.194 1 10 6 100
1957061S11134 1957 18 SP EA NOT_NAMED 1957-03-09 04:00:00 TS -18.5020 135.182 main 0 0 P_____P___O___ SH241957 -18.4090 135.279 10 -1 -18.6506 135.084 -18.4000 135.300 1 10 7 89
1957061S11134 1957 18 SP EA NOT_NAMED 1957-03-09 06:00:00 TS -18.4861 135.424 main 0 0 O_____P___P___ jtwc_sh SH241957 -18.4000 135.500 10 -1 -18.6321 135.367 -18.3659 135.528 1 10 7 80
1957061S11134 1957 18 SP EA NOT_NAMED 1957-03-09 09:00:00 TS -18.3933 135.826 main 0 0 P_____P___P___ SH241957 -18.2800 135.893 15 -1 -18.5675 135.809 -18.2515 135.894 1 10 8 74
1957061S11134 1957 18 SP EA NOT_NAMED 1957-03-09 12:00:00 TS -18.2554 136.245 main 0 0 O_____P___P___ jtwc_sh SH241957 -18.1000 136.300 20 -1 -18.4694 136.266 -18.0973 136.279 1 10 8 70
1957061S11134 1957 18 SP EA NOT_NAMED 1957-03-09 15:00:00 TS -18.1140 136.648 main 0 0 P_____P___P___ SH241957 -17.9349 136.650 22 -1 -18.3498 136.729 -17.9439 136.670 1 10 8 70
1957061S11134 1957 18 SP EA NOT_NAMED 1957-03-09 16:00:00 TS -18.0685 136.782 main 0 0 P_____P___O___ SH241957 -17.8841 136.764 23 -1 -18.3072 136.883 -17.9000 136.800 1 10 8 71
1957061S11134 1957 18 SP EA NOT_NAMED 1957-03-09 18:00:00 TS -17.9859 137.052 main 0 0 O_____P___P___ jtwc_sh SH241957 -17.8000 137.000 25 -1 -18.2207 137.189 -17.8258 137.050 1 12 8 73
1957061S11134 1957 18 SP EA NOT_NAMED 1957-03-09 21:00:00 TS -17.8718 137.473 main 0 0 P_____P___P___ SH241957 -17.7275 137.400 22 -1 -18.0943 137.639 -17.7329 137.425 1 16 8 76
1957061S11134 1957 18 SP EA NOT_NAMED 1957-03-09 23:30:00 TS -17.8004 137.815 1003 bom main 0 0 P_____O___P___ SH241957 -17.7025 137.735 20 -1 -18.0000 138.000 1003 -17.6845 137.738 1 19 8 76
1957061S11134 1957 18 SP EA NOT_NAMED 1957-03-10 00:00:00 TS -17.7793 137.875 main 0 0 O_____P___P___ jtwc_sh SH241957 -17.7000 137.800 20 -1 -17.9830 138.070 -17.6790 137.801 1 20 7 80
1957061S11134 1957 18 SP EA NOT_NAMED 1957-03-10 03:00:00 TS -17.7293 138.238 main 0 0 P_____P___P___ SH241957 -17.6699 138.150 -1 -17.8949 138.477 -17.6827 138.175 1 23 7 84
1957061S11134 1957 18 SP EA NOT_NAMED 1957-03-10 04:00:00 TS -17.7280 138.359 main 0 0 P_____P___O___ SH241957 -17.6707 138.264 -1 -17.8705 138.608 -17.7000 138.300 1 25 7 94
1957061S11134 1957 18 SP EA NOT_NAMED 1957-03-10 06:00:00 TS -17.7541 138.618 main 0 0 O_____P___P___ jtwc_sh SH241957 -17.7000 138.500 -1 -17.8283 138.863 -17.7609 138.550 1 22 8 100
1957061S11134 1957 18 SP EA NOT_NAMED 1957-03-10 09:00:00 TS -17.8368 139.014 main 0 0 P_____P___P___ SH241957 -17.8227 138.887 -1 -17.7801 139.230 -17.9075 138.924 1 18 8 102
1957061S11134 1957 18 SP EA NOT_NAMED 1957-03-10 12:00:00 TS -17.9215 139.425 main 0 0 O_____P___P___ jtwc_sh SH241957 -18.0000 139.300 -1 -17.7468 139.583 -18.1021 139.299 1 14 8 96
1957061S11134 1957 18 SP EA NOT_NAMED 1957-03-10 15:00:00 NR -17.9248 139.841 main 0 0 ______P___P___ SH241957 -1 -17.7253 139.924 -18.3237 139.675 1 11 8 83
1957061S11134 1957 18 SP EA NOT_NAMED 1957-03-10 16:00:00 NR -17.8561 139.988 main 0 0 ______P___O___ SH241957 -1 -17.7202 140.035 -18.4000 139.800 1 10 9 62
1957061S11134 1957 18 SP EA NOT_NAMED 1957-03-10 18:00:00 NR -17.7122 140.256 main 0 0 ______P_______ -1 -17.7122 140.256 1 7 75
1957061S11134 1957 18 SP EA NOT_NAMED 1957-03-10 21:00:00 NR -17.7042 140.583 main 0 0 ______P_______ -1 -17.7042 140.583 1 6 89
1957061S11134 1957 18 SP EA NOT_NAMED 1957-03-10 23:00:00 NR -17.7000 140.800 1006 bom main 0 ______O_______ -1 -17.7000 140.800 1006 1 6 89

IBTrACS Databaseについて

本データベースは、米国NOAAが公開する1842年以降の世界の熱帯低気圧のベストトラックデータアーカイブInternational Best Track Archive for Climate Stewardship (IBTrACS)を、ウェブで閲覧しやすい形式に変換したものです。

最終更新日:2021-12-03